createdAt,value
2019-02-22T00:00:19.511Z,16.00
2019-02-22T00:01:20.005Z,16.00
2019-02-22T00:02:19.484Z,16.00
2019-02-22T00:03:19.477Z,16.00
2019-02-22T00:04:19.484Z,16.00
2019-02-22T00:05:19.457Z,16.00
2019-02-22T00:06:19.439Z,16.00
2019-02-22T00:07:19.456Z,16.00
2019-02-22T00:08:19.445Z,16.00
2019-02-22T00:09:19.417Z,16.00
2019-02-22T00:10:19.446Z,16.00
2019-02-22T00:11:19.397Z,16.00
2019-02-22T00:12:19.376Z,16.00
2019-02-22T00:13:19.690Z,16.00
2019-02-22T00:14:19.371Z,16.00
2019-02-22T00:15:19.352Z,16.00
2019-02-22T00:16:19.411Z,16.00
2019-02-22T00:17:19.313Z,16.00
2019-02-22T00:18:19.316Z,16.00
2019-02-22T00:19:19.290Z,16.00
2019-02-22T00:20:19.349Z,16.00
2019-02-22T00:21:19.288Z,16.00
2019-02-22T00:22:19.323Z,16.00
2019-02-22T00:23:19.252Z,16.00
2019-02-22T00:24:19.262Z,16.00
2019-02-22T00:25:19.747Z,16.00
2019-02-22T00:26:19.245Z,16.00
2019-02-22T00:27:19.227Z,16.00
2019-02-22T00:28:19.235Z,16.00
2019-02-22T00:29:19.209Z,16.00
2019-02-22T00:30:21.511Z,16.00
2019-02-22T00:31:19.173Z,16.00
2019-02-22T00:32:19.622Z,16.00
2019-02-22T00:33:19.162Z,16.00
2019-02-22T00:34:19.242Z,16.00
2019-02-22T00:35:19.137Z,16.00
2019-02-22T00:36:19.194Z,16.00
2019-02-22T00:37:19.177Z,16.00
2019-02-22T00:38:19.092Z,16.00
2019-02-22T00:39:19.447Z,16.00
2019-02-22T00:40:19.112Z,16.00
2019-02-22T00:41:19.070Z,16.00
2019-02-22T00:42:19.040Z,16.00
2019-02-22T00:43:19.048Z,16.00
2019-02-22T00:44:19.164Z,16.00
2019-02-22T00:45:21.754Z,16.00
2019-02-22T00:46:19.522Z,16.00
2019-02-22T00:47:18.994Z,16.00
2019-02-22T00:48:18.990Z,16.00
2019-02-22T00:49:18.997Z,16.00
2019-02-22T00:50:18.959Z,16.00
2019-02-22T00:51:18.950Z,16.00
2019-02-22T00:52:19.202Z,16.00
2019-02-22T00:53:20.148Z,16.00
2019-02-22T00:54:18.924Z,16.00
2019-02-22T00:55:18.920Z,16.00
2019-02-22T00:56:18.905Z,16.00
2019-02-22T00:57:18.895Z,16.00
2019-02-22T00:58:19.756Z,16.00
2019-02-22T00:59:18.864Z,16.00
2019-02-22T01:00:19.374Z,16.00
2019-02-22T01:01:18.840Z,16.00
2019-02-22T01:02:18.834Z,16.00
2019-02-22T01:03:18.837Z,16.00
2019-02-22T01:04:18.854Z,16.00
2019-02-22T01:05:18.836Z,16.00
2019-02-22T01:06:18.785Z,16.00
2019-02-22T01:07:18.801Z,16.00
2019-02-22T01:08:18.774Z,16.00
2019-02-22T01:09:18.767Z,16.00
2019-02-22T01:10:18.886Z,16.00
2019-02-22T01:11:18.758Z,16.00
2019-02-22T01:12:18.733Z,16.00
2019-02-22T01:13:19.033Z,16.00
2019-02-22T01:14:18.707Z,16.00
2019-02-22T01:15:18.722Z,16.00
2019-02-22T01:16:18.712Z,16.00
2019-02-22T01:17:18.671Z,16.00
2019-02-22T01:18:18.680Z,16.00
2019-02-22T01:19:18.642Z,16.00
2019-02-22T01:20:20.117Z,16.00
2019-02-22T01:21:18.648Z,16.00
2019-02-22T01:22:18.662Z,16.00
2019-02-22T01:23:18.597Z,16.00
2019-02-22T01:24:19.233Z,16.00
2019-02-22T01:25:18.610Z,16.00
2019-02-22T01:26:18.592Z,16.00
2019-02-22T01:27:18.931Z,16.00
2019-02-22T01:28:18.838Z,16.00
2019-02-22T01:29:18.541Z,16.00
2019-02-22T01:30:18.531Z,16.00
2019-02-22T01:31:18.529Z,16.00
2019-02-22T01:32:18.531Z,16.00
2019-02-22T01:33:18.525Z,16.00
2019-02-22T01:34:19.217Z,16.00
2019-02-22T01:35:18.473Z,16.00
2019-02-22T01:36:18.454Z,16.00
2019-02-22T01:37:18.462Z,16.00
2019-02-22T01:38:18.473Z,16.00
2019-02-22T01:39:18.456Z,16.00
2019-02-22T01:40:18.461Z,16.00
2019-02-22T01:41:18.829Z,16.00
2019-02-22T01:42:18.398Z,16.00
2019-02-22T01:43:18.415Z,16.00
2019-02-22T01:44:18.385Z,16.00
2019-02-22T01:45:18.381Z,16.00
2019-02-22T01:46:18.712Z,16.00
2019-02-22T01:47:18.347Z,16.00
2019-02-22T01:48:18.852Z,16.00
2019-02-22T01:49:18.338Z,16.00
2019-02-22T01:50:18.309Z,16.00
2019-02-22T01:51:18.297Z,16.00
2019-02-22T01:52:18.374Z,16.00
2019-02-22T01:53:18.303Z,16.00
2019-02-22T01:54:18.273Z,16.00
2019-02-22T01:55:18.702Z,16.00
2019-02-22T01:56:18.251Z,16.00
2019-02-22T01:57:18.226Z,16.00
2019-02-22T01:58:18.276Z,16.00
2019-02-22T01:59:18.206Z,16.00
2019-02-22T02:00:18.226Z,16.00
2019-02-22T02:01:18.198Z,16.00
2019-02-22T02:02:18.545Z,16.00
2019-02-22T02:03:18.217Z,16.00
2019-02-22T02:04:18.214Z,16.00
2019-02-22T02:05:18.151Z,16.00
2019-02-22T02:06:18.164Z,16.00
2019-02-22T02:07:18.122Z,16.00
2019-02-22T02:08:18.112Z,16.00
2019-02-22T02:09:18.606Z,16.00
2019-02-22T02:10:18.150Z,16.00
2019-02-22T02:11:18.091Z,16.00
2019-02-22T02:12:18.092Z,16.00
2019-02-22T02:13:18.063Z,16.00
2019-02-22T02:14:18.042Z,16.00
2019-02-22T02:15:18.053Z,16.00
2019-02-22T02:16:18.447Z,16.00
2019-02-22T02:17:18.027Z,16.00
2019-02-22T02:18:18.006Z,16.00
2019-02-22T02:19:18.005Z,16.00
2019-02-22T02:20:18.030Z,16.00
2019-02-22T02:21:17.978Z,20.00
2019-02-22T02:22:18.206Z,16.00
2019-02-22T02:23:18.466Z,16.00
2019-02-22T02:24:18.737Z,16.00
2019-02-22T02:25:17.921Z,16.00
2019-02-22T02:26:17.921Z,16.00
2019-02-22T02:27:17.905Z,16.00
2019-02-22T02:28:17.979Z,16.00
2019-02-22T02:29:17.882Z,16.00
2019-02-22T02:30:19.319Z,16.00
2019-02-22T02:31:17.863Z,16.00
2019-02-22T02:32:17.861Z,16.00
2019-02-22T02:33:17.843Z,16.00
2019-02-22T02:34:18.682Z,16.00
2019-02-22T02:35:17.845Z,16.00
2019-02-22T02:36:17.831Z,16.00
2019-02-22T02:37:18.142Z,16.00
2019-02-22T02:38:17.791Z,16.00
2019-02-22T02:39:17.790Z,16.00
2019-02-22T02:40:18.069Z,16.00
2019-02-22T02:41:17.769Z,16.00
2019-02-22T02:42:17.765Z,16.00
2019-02-22T02:43:17.734Z,16.00
2019-02-22T02:44:18.199Z,16.00
2019-02-22T02:45:17.798Z,16.00
2019-02-22T02:46:17.757Z,16.00
2019-02-22T02:47:17.711Z,16.00
2019-02-22T02:48:17.695Z,16.00
2019-02-22T02:49:17.685Z,16.00
2019-02-22T02:50:17.655Z,16.00
2019-02-22T02:51:18.038Z,16.00
2019-02-22T02:52:17.692Z,16.00
2019-02-22T02:53:17.632Z,16.00
2019-02-22T02:54:17.632Z,16.00
2019-02-22T02:55:17.597Z,16.00
2019-02-22T02:56:17.605Z,16.00
2019-02-22T02:57:17.590Z,16.00
2019-02-22T02:58:18.736Z,16.00
2019-02-22T02:59:17.558Z,16.00
2019-02-22T03:01:42.377Z,16.00
2019-02-22T03:02:42.186Z,16.00
2019-02-22T03:03:42.176Z,16.00
2019-02-22T03:04:42.151Z,16.00
2019-02-22T03:05:42.155Z,16.00
2019-02-22T03:06:42.152Z,16.00
2019-02-22T03:07:42.466Z,16.00
2019-02-22T03:08:42.134Z,16.00
2019-02-22T03:09:48.940Z,16.00
2019-02-22T03:10:42.092Z,16.00
2019-02-22T03:11:42.086Z,16.00
2019-02-22T03:12:42.074Z,16.00
2019-02-22T03:13:42.095Z,16.00
2019-02-22T03:14:42.067Z,16.00
2019-02-22T03:15:42.036Z,16.00
2019-02-22T03:16:42.022Z,16.00
2019-02-22T03:17:42.027Z,16.00
2019-02-22T03:18:42.015Z,16.00
2019-02-22T03:19:43.174Z,16.00
2019-02-22T03:20:41.984Z,16.00
2019-02-22T03:21:41.971Z,16.00
2019-02-22T03:22:41.969Z,16.00
2019-02-22T03:23:41.975Z,16.00
2019-02-22T03:24:41.942Z,16.00
2019-02-22T03:25:42.036Z,16.00
2019-02-22T03:26:42.213Z,16.00
2019-02-22T03:27:41.937Z,16.00
2019-02-22T03:28:41.901Z,16.00
2019-02-22T03:29:41.896Z,16.00
2019-02-22T03:30:41.903Z,16.00
2019-02-22T03:31:41.945Z,16.00
2019-02-22T03:32:41.872Z,16.00
2019-02-22T03:33:42.262Z,16.00
2019-02-22T03:34:41.841Z,16.00
2019-02-22T03:35:41.824Z,16.00
2019-02-22T03:36:41.836Z,16.00
2019-02-22T03:37:41.914Z,16.00
2019-02-22T03:38:41.839Z,16.00
2019-02-22T03:39:41.787Z,16.00
2019-02-22T03:40:42.115Z,16.00
2019-02-22T03:41:41.772Z,16.00
2019-02-22T03:42:41.757Z,16.00
2019-02-22T03:43:41.793Z,16.00
2019-02-22T03:44:41.724Z,16.00
2019-02-22T03:45:41.721Z,16.00
2019-02-22T03:46:41.708Z,16.00
2019-02-22T03:47:42.023Z,16.00
2019-02-22T03:48:42.443Z,16.00
2019-02-22T03:49:41.722Z,16.00
2019-02-22T03:50:41.673Z,16.00
2019-02-22T03:51:41.671Z,16.00
2019-02-22T03:52:41.648Z,16.00
2019-02-22T03:53:41.636Z,16.00
2019-02-22T03:54:41.966Z,16.00
2019-02-22T03:55:41.780Z,16.00
2019-02-22T03:56:41.607Z,16.00
2019-02-22T03:57:41.596Z,16.00
2019-02-22T03:58:41.602Z,16.00
2019-02-22T03:59:41.577Z,16.00
2019-02-22T04:00:41.564Z,16.00
2019-02-22T04:01:41.587Z,16.00
2019-02-22T04:02:41.537Z,16.00
2019-02-22T04:03:41.531Z,16.00
2019-02-22T04:04:41.567Z,16.00
2019-02-22T04:05:41.514Z,16.00
2019-02-22T04:06:41.525Z,16.00
2019-02-22T04:07:41.833Z,16.00
2019-02-22T04:08:41.510Z,16.00
2019-02-22T04:09:41.476Z,16.00
2019-02-22T04:10:41.472Z,16.00
2019-02-22T04:11:45.703Z,16.00
2019-02-22T04:12:41.447Z,16.00
2019-02-22T04:13:41.917Z,16.00
2019-02-22T04:14:41.724Z,16.00
2019-02-22T04:15:41.413Z,16.00
2019-02-22T04:16:41.419Z,16.00
2019-02-22T04:17:41.435Z,16.00
2019-02-22T04:18:41.405Z,16.00
2019-02-22T04:19:41.416Z,16.00
2019-02-22T04:20:41.358Z,16.00
2019-02-22T04:21:41.645Z,16.00
2019-02-22T04:22:44.271Z,16.00
2019-02-22T04:23:41.319Z,16.00
2019-02-22T04:24:41.319Z,16.00
2019-02-22T04:25:41.347Z,16.00
2019-02-22T04:26:41.289Z,16.00
2019-02-22T04:27:41.267Z,16.00
2019-02-22T04:28:41.586Z,16.00
2019-02-22T04:29:41.264Z,16.00
2019-02-22T04:30:41.246Z,16.00
2019-02-22T04:31:41.312Z,16.00
2019-02-22T04:32:41.241Z,16.00
2019-02-22T04:33:41.215Z,16.00
2019-02-22T04:34:41.227Z,16.00
2019-02-22T04:35:41.497Z,16.00
2019-02-22T04:36:41.193Z,16.00
2019-02-22T04:37:41.207Z,16.00
2019-02-22T04:38:41.152Z,16.00
2019-02-22T04:39:41.161Z,16.00
2019-02-22T04:40:41.131Z,16.00
2019-02-22T04:41:41.200Z,16.00
2019-02-22T04:42:41.502Z,16.00
2019-02-22T04:43:41.156Z,16.00
2019-02-22T04:44:41.102Z,16.00
2019-02-22T04:45:41.105Z,16.00
2019-02-22T04:46:41.075Z,16.00
2019-02-22T04:47:41.086Z,16.00
2019-02-22T04:48:41.153Z,16.00
2019-02-22T04:49:41.770Z,16.00
2019-02-22T04:50:41.024Z,16.00
2019-02-22T04:51:41.024Z,16.00
2019-02-22T04:52:41.041Z,16.00
2019-02-22T04:53:41.002Z,16.00
2019-02-22T04:54:40.991Z,16.00
2019-02-22T04:55:41.022Z,16.00
2019-02-22T04:56:41.386Z,16.00
2019-02-22T04:57:41.972Z,16.00
2019-02-22T04:58:40.951Z,16.00
2019-02-22T04:59:41.431Z,16.00
2019-02-22T05:00:40.926Z,16.00
2019-02-22T05:01:40.976Z,16.00
2019-02-22T05:02:40.910Z,16.00
2019-02-22T05:03:41.827Z,16.00
2019-02-22T05:04:40.888Z,16.00
2019-02-22T05:05:40.866Z,16.00
2019-02-22T05:06:40.858Z,16.00
2019-02-22T05:07:41.225Z,16.00
2019-02-22T05:08:40.838Z,16.00
2019-02-22T05:09:40.815Z,16.00
2019-02-22T05:10:41.261Z,16.00
2019-02-22T05:11:40.954Z,16.00
2019-02-22T05:12:40.799Z,16.00
2019-02-22T05:13:40.815Z,16.00
2019-02-22T05:14:40.781Z,16.00
2019-02-22T05:15:40.766Z,16.00
2019-02-22T05:16:40.747Z,16.00
2019-02-22T05:17:41.107Z,16.00
2019-02-22T05:18:40.736Z,16.00
2019-02-22T05:19:40.776Z,16.00
2019-02-22T05:20:40.726Z,16.00
2019-02-22T05:21:40.798Z,16.00
2019-02-22T05:22:40.685Z,16.00
2019-02-22T05:23:41.135Z,16.00
2019-02-22T05:24:41.082Z,16.00
2019-02-22T05:25:40.719Z,16.00
2019-02-22T05:26:40.650Z,16.00
2019-02-22T05:27:40.631Z,16.00
2019-02-22T05:28:40.623Z,16.00
2019-02-22T05:29:40.689Z,16.00
2019-02-22T05:30:40.607Z,16.00
2019-02-22T05:31:40.631Z,16.00
2019-02-22T05:32:40.576Z,12.00
2019-02-22T05:33:40.566Z,16.00
2019-02-22T05:34:40.565Z,16.00
2019-02-22T05:35:40.546Z,16.00
2019-02-22T05:36:40.587Z,16.00
2019-02-22T05:37:41.105Z,16.00
2019-02-22T05:38:40.506Z,16.00
2019-02-22T05:39:40.510Z,16.00
2019-02-22T05:40:40.509Z,16.00
2019-02-22T05:41:40.475Z,16.00
2019-02-22T05:42:40.462Z,16.00
2019-02-22T05:43:40.766Z,16.00
2019-02-22T05:44:40.780Z,16.00
2019-02-22T05:45:40.455Z,16.00
2019-02-22T05:46:40.444Z,16.00
2019-02-22T05:47:40.452Z,16.00
2019-02-22T05:48:40.404Z,16.00
2019-02-22T05:49:40.634Z,16.00
2019-02-22T05:50:40.397Z,16.00
2019-02-22T05:51:40.693Z,16.00
2019-02-22T05:52:40.410Z,16.00
2019-02-22T05:53:40.410Z,16.00
2019-02-22T05:54:40.350Z,16.00
2019-02-22T05:55:40.467Z,16.00
2019-02-22T05:56:40.319Z,20.00
2019-02-22T05:57:40.312Z,16.00
2019-02-22T05:58:40.637Z,20.00
2019-02-22T05:59:40.293Z,16.00
2019-02-22T06:00:40.286Z,16.00
2019-02-22T06:01:40.343Z,16.00
2019-02-22T06:02:40.253Z,20.00
2019-02-22T06:03:41.049Z,20.00
2019-02-22T06:04:40.236Z,20.00
2019-02-22T06:05:40.614Z,20.00
2019-02-22T06:06:40.442Z,20.00
2019-02-22T06:07:40.566Z,20.00
2019-02-22T06:08:40.298Z,20.00
2019-02-22T06:09:40.212Z,24.00
2019-02-22T06:10:40.190Z,28.00
2019-02-22T06:11:40.257Z,28.00
2019-02-22T06:12:43.518Z,32.00
2019-02-22T06:13:40.380Z,36.00
2019-02-22T06:14:40.287Z,40.00
2019-02-22T06:15:40.957Z,40.00
2019-02-22T06:16:40.219Z,40.00
2019-02-22T06:17:40.312Z,44.00
2019-02-22T06:18:41.142Z,48.00
2019-02-22T06:20:49.627Z,56.00
2019-02-22T06:21:49.505Z,60.00
2019-02-22T06:22:48.976Z,76.00
2019-02-22T06:23:49.647Z,84.00
2019-02-22T06:24:48.897Z,88.00
2019-02-22T06:25:48.963Z,64.00
2019-02-22T06:26:53.264Z,76.00
2019-02-22T06:27:48.974Z,96.00
2019-02-22T06:28:48.841Z,108.00
2019-02-22T06:29:49.864Z,128.00
2019-02-22T06:30:48.893Z,132.00
2019-02-22T06:31:48.781Z,128.00
2019-02-22T06:32:48.802Z,140.00
2019-02-22T06:33:50.789Z,140.00
2019-02-22T06:34:49.513Z,144.00
2019-02-22T06:35:49.105Z,152.00
2019-02-22T06:37:00.740Z,148.00
2019-02-22T06:37:49.880Z,156.00
2019-02-22T06:38:49.711Z,168.00
2019-02-22T06:39:49.158Z,168.00
2019-02-22T06:40:48.707Z,148.00
2019-02-22T06:41:48.815Z,136.00
2019-02-22T06:42:48.894Z,136.00
2019-02-22T06:43:48.612Z,140.00
2019-02-22T06:44:48.558Z,132.00
2019-02-22T06:45:48.532Z,132.00
2019-02-22T06:46:49.165Z,132.00
2019-02-22T06:47:49.065Z,144.00
2019-02-22T06:48:48.753Z,172.00
2019-02-22T06:49:49.749Z,200.00
2019-02-22T06:50:48.502Z,164.00
2019-02-22T06:51:49.540Z,144.00
2019-02-22T06:52:48.463Z,148.00
2019-02-22T06:53:48.875Z,160.00
2019-02-22T06:54:48.532Z,160.00
2019-02-22T06:55:48.431Z,192.00
2019-02-22T06:56:48.417Z,280.00
2019-02-22T06:57:48.416Z,304.00
2019-02-22T06:58:48.427Z,316.00
2019-02-22T06:59:48.505Z,340.00
2019-02-22T07:00:49.602Z,348.00
2019-02-22T07:01:49.983Z,308.00
2019-02-22T07:02:48.605Z,300.00
2019-02-22T07:03:48.397Z,252.00
2019-02-22T07:04:48.747Z,220.00
2019-02-22T07:05:48.401Z,200.00
2019-02-22T07:07:58.037Z,268.00
2019-02-22T07:08:57.528Z,292.00
2019-02-22T07:09:57.627Z,312.00
2019-02-22T07:10:57.501Z,328.00
2019-02-22T07:11:57.588Z,328.00
2019-02-22T07:12:57.587Z,324.00
2019-02-22T07:13:57.682Z,320.00
2019-02-22T07:14:58.012Z,324.00
2019-02-22T07:15:58.327Z,316.00
2019-02-22T07:16:57.512Z,308.00
2019-02-22T07:17:57.501Z,300.00
2019-02-22T07:19:00.326Z,284.00
2019-02-22T07:19:57.462Z,300.00
2019-02-22T07:20:57.498Z,304.00
2019-02-22T07:21:57.405Z,284.00
2019-02-22T07:22:57.373Z,248.00
2019-02-22T07:23:57.386Z,236.00
2019-02-22T07:24:57.374Z,220.00
2019-02-22T07:25:59.412Z,216.00
2019-02-22T07:26:57.450Z,220.00
2019-02-22T07:27:57.709Z,224.00
2019-02-22T07:28:57.331Z,208.00
2019-02-22T07:29:57.308Z,188.00
2019-02-22T07:30:57.299Z,184.00
2019-02-22T07:32:05.350Z,172.00
2019-02-22T07:32:58.402Z,180.00
2019-02-22T07:33:57.337Z,180.00
2019-02-22T07:34:57.267Z,184.00
2019-02-22T07:35:57.246Z,200.00
2019-02-22T07:36:57.234Z,208.00
2019-02-22T07:37:57.324Z,204.00
2019-02-22T07:38:57.251Z,204.00
2019-02-22T07:39:57.498Z,212.00
2019-02-22T07:40:57.216Z,220.00
2019-02-22T07:42:32.832Z,188.00
2019-02-22T07:43:07.545Z,168.00
2019-02-22T07:43:58.196Z,160.00
2019-02-22T07:44:57.279Z,164.00
2019-02-22T07:46:02.877Z,172.00
2019-02-22T07:46:57.129Z,204.00
2019-02-22T07:47:58.151Z,224.00
2019-02-22T07:48:57.096Z,240.00
2019-02-22T07:49:57.448Z,216.00
2019-02-22T07:50:58.529Z,224.00
2019-02-22T07:51:57.073Z,216.00
2019-02-22T07:52:57.493Z,192.00
2019-02-22T07:53:57.068Z,164.00
2019-02-22T07:54:57.058Z,160.00
2019-02-22T07:55:57.067Z,176.00
2019-02-22T07:56:57.800Z,220.00
2019-02-22T07:57:57.841Z,252.00
2019-02-22T07:58:56.995Z,244.00
2019-02-22T07:59:56.996Z,276.00
2019-02-22T08:00:56.966Z,316.00
2019-02-22T08:01:57.027Z,292.00
2019-02-22T08:02:56.949Z,280.00
2019-02-22T08:03:56.961Z,236.00
2019-02-22T08:04:56.956Z,212.00
2019-02-22T08:05:56.922Z,204.00
2019-02-22T08:06:56.920Z,244.00
2019-02-22T08:07:57.186Z,380.00
2019-02-22T08:08:56.910Z,488.00
2019-02-22T08:09:56.895Z,540.00
2019-02-22T08:10:56.864Z,564.00
2019-02-22T08:11:56.881Z,572.00
2019-02-22T08:12:56.856Z,572.00
2019-02-22T08:13:56.898Z,568.00
2019-02-22T08:14:56.894Z,556.00
2019-02-22T08:15:56.823Z,540.00
2019-02-22T08:16:56.841Z,536.00
2019-02-22T08:17:56.800Z,580.00
2019-02-22T08:19:01.509Z,596.00
2019-02-22T08:19:57.824Z,624.00
2019-02-22T08:20:56.764Z,748.00
2019-02-22T08:21:56.820Z,800.00
2019-02-22T08:22:56.736Z,792.00
2019-02-22T08:23:56.708Z,836.00
2019-02-22T08:24:56.740Z,936.00
2019-02-22T08:25:56.802Z,1004.00
2019-02-22T08:26:56.687Z,960.00
2019-02-22T08:27:56.697Z,832.00
2019-02-22T08:28:56.678Z,772.00
2019-02-22T08:29:57.194Z,812.00
2019-02-22T08:30:56.690Z,824.00
2019-02-22T08:31:56.677Z,848.00
2019-02-22T08:32:56.641Z,876.00
2019-02-22T08:33:57.231Z,904.00
2019-02-22T08:34:56.605Z,888.00
2019-02-22T08:35:56.610Z,908.00
2019-02-22T08:36:56.584Z,936.00
2019-02-22T08:37:56.669Z,956.00
2019-02-22T08:38:56.833Z,996.00
2019-02-22T08:39:58.841Z,988.00
2019-02-22T08:40:56.541Z,996.00
2019-02-22T08:41:57.996Z,976.00
2019-02-22T08:42:56.524Z,968.00
2019-02-22T08:43:56.567Z,1020.00
2019-02-22T08:44:56.510Z,1056.00
2019-02-22T08:45:56.560Z,1168.00
2019-02-22T08:46:56.477Z,1240.00
2019-02-22T08:47:56.573Z,1308.00
2019-02-22T08:48:56.451Z,1416.00
2019-02-22T08:49:56.525Z,1456.00
2019-02-22T08:50:56.432Z,1216.00
2019-02-22T08:51:56.416Z,976.00
2019-02-22T08:52:56.492Z,896.00
2019-02-22T08:53:56.453Z,1040.00
2019-02-22T08:54:56.838Z,1384.00
2019-02-22T08:55:56.461Z,1424.00
2019-02-22T08:56:56.399Z,1428.00
2019-02-22T08:57:56.372Z,1332.00
2019-02-22T08:58:56.352Z,1308.00
2019-02-22T08:59:56.385Z,1384.00
2019-02-22T09:00:56.325Z,1480.00
2019-02-22T09:01:56.783Z,1624.00
2019-02-22T09:02:56.312Z,1760.00
2019-02-22T09:03:56.289Z,1864.00
2019-02-22T09:04:56.318Z,1740.00
2019-02-22T09:05:56.293Z,1584.00
2019-02-22T09:06:56.297Z,1604.00
2019-02-22T09:07:56.334Z,1648.00
2019-02-22T09:08:56.259Z,1684.00
2019-02-22T09:09:56.235Z,1576.00
2019-02-22T09:11:00.590Z,1448.00
2019-02-22T09:11:57.721Z,1400.00
2019-02-22T09:12:56.203Z,1384.00
2019-02-22T09:13:56.281Z,1388.00
2019-02-22T09:14:56.187Z,1412.00
2019-02-22T09:15:56.306Z,1488.00
2019-02-22T09:16:56.306Z,1556.00
2019-02-22T09:17:56.155Z,1624.00
2019-02-22T09:18:56.137Z,1708.00
2019-02-22T09:19:56.366Z,1708.00
2019-02-22T09:20:56.106Z,1680.00
2019-02-22T09:21:56.750Z,1676.00
2019-02-22T09:22:56.128Z,1720.00
2019-02-22T09:23:56.125Z,1728.00
2019-02-22T09:24:56.323Z,1676.00
2019-02-22T09:25:59.249Z,1768.00
2019-02-22T09:26:56.830Z,1808.00
2019-02-22T09:27:57.793Z,1744.00
2019-02-22T09:28:57.872Z,1788.00
2019-02-22T09:29:59.106Z,1868.00
2019-02-22T09:30:56.816Z,2000.00
2019-02-22T09:31:56.515Z,2212.00
2019-02-22T09:32:56.122Z,2244.00
2019-02-22T09:33:56.248Z,2096.00
2019-02-22T09:34:55.978Z,1864.00
2019-02-22T09:35:56.037Z,1724.00
2019-02-22T09:36:56.833Z,1700.00
2019-02-22T09:37:56.041Z,1680.00
2019-02-22T09:38:55.935Z,1584.00
2019-02-22T09:39:56.793Z,1432.00
2019-02-22T09:40:56.852Z,1428.00
2019-02-22T09:41:56.068Z,1524.00
2019-02-22T09:42:56.735Z,1588.00
2019-02-22T09:43:56.763Z,1532.00
2019-02-22T09:44:55.870Z,1448.00
2019-02-22T09:45:55.847Z,1432.00
2019-02-22T09:47:00.789Z,1516.00
2019-02-22T09:47:56.721Z,1668.00
2019-02-22T09:48:56.045Z,2028.00
2019-02-22T09:49:55.865Z,2612.00
2019-02-22T09:50:55.827Z,2580.00
2019-02-22T09:51:55.812Z,2340.00
2019-02-22T09:52:55.768Z,2264.00
2019-02-22T09:53:55.763Z,2388.00
2019-02-22T09:54:55.779Z,2564.00
2019-02-22T09:55:57.390Z,2464.00
2019-02-22T09:56:55.846Z,2160.00
2019-02-22T09:57:55.733Z,1884.00
2019-02-22T09:58:55.783Z,1728.00
2019-02-22T09:59:55.706Z,1620.00
2019-02-22T10:00:55.686Z,1544.00
2019-02-22T10:01:55.762Z,1452.00
2019-02-22T10:02:55.709Z,1372.00
2019-02-22T10:03:56.713Z,1264.00
2019-02-22T10:04:55.731Z,1320.00
2019-02-22T10:05:55.712Z,1608.00
2019-02-22T10:06:55.630Z,1876.00
2019-02-22T10:07:55.657Z,2044.00
2019-02-22T10:08:56.280Z,2180.00
2019-02-22T10:09:55.596Z,2400.00
2019-02-22T10:10:55.578Z,2684.00
2019-02-22T10:11:55.604Z,3016.00
2019-02-22T10:12:55.560Z,3264.00
2019-02-22T10:14:06.361Z,3372.00
2019-02-22T10:14:56.542Z,3496.00
2019-02-22T10:15:55.567Z,3636.00
2019-02-22T10:16:55.532Z,3752.00
2019-02-22T10:17:55.535Z,3752.00
2019-02-22T10:18:55.528Z,3556.00
2019-02-22T10:19:55.727Z,3728.00
2019-02-22T10:20:55.472Z,3800.00
2019-02-22T10:21:57.511Z,3844.00
2019-02-22T10:22:55.466Z,3964.00
2019-02-22T10:23:55.448Z,3800.00
2019-02-22T10:24:55.446Z,3872.00
2019-02-22T10:25:55.456Z,4012.00
2019-02-22T10:26:55.446Z,4076.00
2019-02-22T10:27:55.410Z,4216.00
2019-02-22T10:28:55.386Z,4316.00
2019-02-22T10:29:55.433Z,4408.00
2019-02-22T10:30:55.387Z,4496.00
2019-02-22T10:31:55.431Z,4504.00
2019-02-22T10:32:55.433Z,4412.00
2019-02-22T10:33:55.479Z,4356.00
2019-02-22T10:34:55.312Z,4512.00
2019-02-22T10:35:55.317Z,4712.00
2019-02-22T10:36:55.309Z,4872.00
2019-02-22T10:37:55.332Z,5036.00
2019-02-22T10:38:58.376Z,5240.00
2019-02-22T10:39:55.308Z,5324.00
2019-02-22T10:40:55.288Z,5028.00
2019-02-22T10:41:55.263Z,4468.00
2019-02-22T10:42:55.253Z,4008.00
2019-02-22T10:43:55.286Z,3688.00
2019-02-22T10:44:55.217Z,3408.00
2019-02-22T10:45:55.215Z,3132.00
2019-02-22T10:46:55.198Z,2908.00
2019-02-22T10:47:55.277Z,2720.00
2019-02-22T10:48:55.173Z,2548.00
2019-02-22T10:49:55.352Z,2352.00
2019-02-22T10:50:55.158Z,2176.00
2019-02-22T10:51:55.183Z,1976.00
2019-02-22T10:53:02.146Z,1800.00
2019-02-22T10:53:56.826Z,1684.00
2019-02-22T10:54:55.114Z,1580.00
2019-02-22T10:55:55.363Z,1520.00
2019-02-22T10:56:55.123Z,1500.00
2019-02-22T10:57:55.095Z,1496.00
2019-02-22T10:58:55.077Z,1496.00
2019-02-22T10:59:55.061Z,1488.00
2019-02-22T11:01:01.797Z,1476.00
2019-02-22T11:01:55.096Z,1452.00
2019-02-22T11:02:55.758Z,1480.00
2019-02-22T11:03:55.042Z,1560.00
2019-02-22T11:04:54.995Z,1616.00
2019-02-22T11:05:55.805Z,1716.00
2019-02-22T11:06:55.003Z,1836.00
2019-02-22T11:07:56.760Z,1936.00
2019-02-22T11:08:54.971Z,1988.00
2019-02-22T11:09:55.112Z,1960.00
2019-02-22T11:10:54.927Z,2000.00
2019-02-22T11:11:54.940Z,1992.00
2019-02-22T11:12:54.937Z,2044.00
2019-02-22T11:13:55.323Z,2184.00
2019-02-22T11:14:55.883Z,2288.00
2019-02-22T11:15:54.928Z,2368.00
2019-02-22T11:16:54.892Z,2420.00
2019-02-22T11:17:54.865Z,2548.00
2019-02-22T11:18:54.898Z,2664.00
2019-02-22T11:19:54.877Z,2708.00
2019-02-22T11:20:55.337Z,2712.00
2019-02-22T11:21:54.833Z,2552.00
2019-02-22T11:22:54.805Z,2304.00
2019-02-22T11:23:54.806Z,2012.00
2019-02-22T11:24:54.783Z,1828.00
2019-02-22T11:25:54.878Z,1840.00
2019-02-22T11:26:54.794Z,1936.00
2019-02-22T11:27:55.782Z,1968.00
2019-02-22T11:28:54.760Z,1880.00
2019-02-22T11:29:54.762Z,2004.00
2019-02-22T11:30:54.728Z,1948.00
2019-02-22T11:31:54.752Z,1912.00
2019-02-22T11:32:54.729Z,1996.00
2019-02-22T11:33:55.191Z,2196.00
2019-02-22T11:34:54.692Z,2388.00
2019-02-22T11:35:54.689Z,2512.00
2019-02-22T11:36:54.659Z,2524.00
2019-02-22T11:37:54.793Z,2636.00
2019-02-22T11:38:54.683Z,2488.00
2019-02-22T11:39:54.625Z,2400.00
2019-02-22T11:40:54.674Z,2392.00
2019-02-22T11:41:54.653Z,2348.00
2019-02-22T11:42:55.196Z,2384.00
2019-02-22T11:43:54.672Z,2416.00
2019-02-22T11:44:54.570Z,2472.00
2019-02-22T11:45:54.628Z,2572.00
2019-02-22T11:46:54.554Z,2568.00
2019-02-22T11:47:54.548Z,2768.00
2019-02-22T11:48:54.536Z,2848.00
2019-02-22T11:49:54.686Z,2892.00
2019-02-22T11:50:54.517Z,2848.00
2019-02-22T11:51:56.012Z,2804.00
2019-02-22T11:52:54.483Z,2772.00
2019-02-22T11:53:54.472Z,2764.00
2019-02-22T11:54:54.488Z,2720.00
2019-02-22T11:55:54.487Z,2700.00
2019-02-22T11:56:54.507Z,2604.00
2019-02-22T11:57:54.438Z,2484.00
2019-02-22T11:58:54.502Z,2392.00
2019-02-22T11:59:54.420Z,2396.00
2019-02-22T12:00:54.470Z,2388.00
2019-02-22T12:01:55.342Z,2352.00
2019-02-22T12:02:54.382Z,2280.00
2019-02-22T12:03:54.797Z,2172.00
2019-02-22T12:04:54.388Z,2044.00
2019-02-22T12:05:54.370Z,1936.00
2019-02-22T12:06:54.360Z,1968.00
2019-02-22T12:07:54.553Z,2072.00
2019-02-22T12:08:54.330Z,2164.00
2019-02-22T12:09:54.314Z,2232.00
2019-02-22T12:10:55.238Z,2244.00
2019-02-22T12:11:54.326Z,2284.00
2019-02-22T12:12:54.334Z,2336.00
2019-02-22T12:13:54.315Z,2440.00
2019-02-22T12:14:54.264Z,2560.00
2019-02-22T12:15:54.266Z,2668.00
2019-02-22T12:16:54.234Z,2740.00
2019-02-22T12:17:54.267Z,2744.00
2019-02-22T12:18:54.232Z,2784.00
2019-02-22T12:19:54.358Z,2824.00
2019-02-22T12:20:54.210Z,2908.00
2019-02-22T12:21:54.204Z,3024.00
2019-02-22T12:22:54.795Z,3188.00
2019-02-22T12:23:54.279Z,3340.00
2019-02-22T12:24:54.309Z,3468.00
2019-02-22T12:25:54.219Z,3540.00
2019-02-22T12:26:54.123Z,3620.00
2019-02-22T12:27:54.117Z,3724.00
2019-02-22T12:28:54.160Z,3884.00
2019-02-22T12:29:54.123Z,4044.00
2019-02-22T12:30:54.121Z,4176.00
2019-02-22T12:31:54.373Z,4256.00
2019-02-22T12:32:54.057Z,4332.00
2019-02-22T12:33:54.128Z,4420.00
2019-02-22T12:34:54.046Z,4584.00
2019-02-22T12:35:54.041Z,4692.00
2019-02-22T12:36:54.067Z,4848.00